AEZ2602 LIRF-LICJ
Flight info
| Callsign | AEZ2602 |
|---|---|
| Flight time | 0h 44m |
| Altitude | 33000 |
| Route | XIBRI5AXROTUN8A/25 ROTUN DCT GIANO |
| Aircraft | A319/M-SDE3FGHIRWY/LB1 |
Departure
| Time | 2026-05-06 16:27 |
|---|---|
| Airport | Rome–Fiumicino Leonardo da Vinci International Airport (LIRF) |
Arrival
| Time | 2026-05-06 17:11 |
|---|---|
| Airport | Falcone–Borsellino Airport (LICJ) |
| Time | Latitude | Longitude | Altitude | Speed | Heading |
|---|---|---|---|---|---|
| 2026-05-06 16:02 | 41.80006 | 12.26562 | 15 ft | 0 kts | 250° |
| 2026-05-06 16:17 | 41.80005 | 12.26561 | 15 ft | 0 kts | 250° |
| 2026-05-06 16:18 | 41.80004 | 12.26558 | 15 ft | 0 kts | 250° |
| 2026-05-06 16:20 | 41.80003 | 12.26553 | 15 ft | 2 kts | 253° |
| 2026-05-06 16:20 | 41.80004 | 12.26533 | 15 ft | 4 kts | 285° |
| 2026-05-06 16:21 | 41.80058 | 12.26476 | 15 ft | 10 kts | 340° |
| 2026-05-06 16:21 | 41.80106 | 12.26453 | 15 ft | 4 kts | 340° |
| 2026-05-06 16:21 | 41.80132 | 12.26411 | 16 ft | 8 kts | 266° |
| 2026-05-06 16:21 | 41.80114 | 12.26292 | 16 ft | 9 kts | 287° |
| 2026-05-06 16:22 | 41.80132 | 12.26237 | 16 ft | 10 kts | 294° |
| 2026-05-06 16:22 | 41.80169 | 12.26130 | 16 ft | 14 kts | 295° |
| 2026-05-06 16:22 | 41.80236 | 12.26045 | 16 ft | 13 kts | 17° |
| 2026-05-06 16:22 | 41.80319 | 12.26099 | 16 ft | 13 kts | 26° |
| 2026-05-06 16:23 | 41.80407 | 12.26155 | 16 ft | 14 kts | 22° |
| 2026-05-06 16:23 | 41.80525 | 12.26238 | 16 ft | 15 kts | 60° |
| 2026-05-06 16:23 | 41.80551 | 12.26329 | 16 ft | 16 kts | 70° |
| 2026-05-06 16:23 | 41.80604 | 12.26525 | 15 ft | 17 kts | 71° |
| 2026-05-06 16:24 | 41.80632 | 12.26628 | 15 ft | 17 kts | 69° |
| 2026-05-06 16:24 | 41.80675 | 12.26791 | 14 ft | 18 kts | 71° |
| 2026-05-06 16:24 | 41.80722 | 12.26958 | 13 ft | 19 kts | 69° |
| 2026-05-06 16:24 | 41.80832 | 12.27029 | 13 ft | 7 kts | 340° |
| 2026-05-06 16:25 | 41.80862 | 12.27014 | 13 ft | 0 kts | 339° |
| 2026-05-06 16:25 | 41.80864 | 12.27013 | 13 ft | 0 kts | 339° |
| 2026-05-06 16:25 | 41.80871 | 12.27009 | 13 ft | 1 kts | 339° |
| 2026-05-06 16:26 | 41.80882 | 12.27004 | 13 ft | 3 kts | 339° |
| 2026-05-06 16:26 | 41.80910 | 12.26990 | 13 ft | 5 kts | 339° |
| 2026-05-06 16:26 | 41.80949 | 12.26964 | 13 ft | 7 kts | 317° |
| 2026-05-06 16:26 | 41.80955 | 12.26922 | 13 ft | 0 kts | 250° |
| 2026-05-06 16:27 | 41.80948 | 12.26898 | 13 ft | 19 kts | 250° |
| 2026-05-06 16:27 | 41.80713 | 12.26054 | 16 ft | 120 kts | 249° |
| 2026-05-06 16:27 | 41.80489 | 12.25231 | 16 ft | 160 kts | 249° |
| 2026-05-06 16:27 | 41.79908 | 12.23169 | 627 ft | 182 kts | 246° |
| 2026-05-06 16:28 | 41.79484 | 12.21628 | 1430 ft | 178 kts | 246° |
| 2026-05-06 16:28 | 41.79137 | 12.20658 | 2015 ft | 173 kts | 233° |
| 2026-05-06 16:28 | 41.78333 | 12.19468 | 2661 ft | 180 kts | 215° |
| 2026-05-06 16:28 | 41.77279 | 12.18489 | 3266 ft | 193 kts | 212° |
| 2026-05-06 16:29 | 41.76121 | 12.17419 | 3848 ft | 207 kts | 214° |
| 2026-05-06 16:29 | 41.74878 | 12.16372 | 4485 ft | 214 kts | 200° |
| 2026-05-06 16:29 | 41.73349 | 12.16107 | 5188 ft | 226 kts | 174° |
| 2026-05-06 16:29 | 41.71153 | 12.16646 | 5995 ft | 248 kts | 171° |
| 2026-05-06 16:30 | 41.69975 | 12.16859 | 6388 ft | 259 kts | 174° |
| 2026-05-06 16:30 | 41.68768 | 12.17005 | 6888 ft | 265 kts | 176° |
| 2026-05-06 16:30 | 41.65704 | 12.17233 | 8340 ft | 269 kts | 178° |
| 2026-05-06 16:30 | 41.63826 | 12.17335 | 9174 ft | 274 kts | 178° |
| 2026-05-06 16:31 | 41.62559 | 12.17399 | 9746 ft | 276 kts | 178° |
| 2026-05-06 16:31 | 41.59978 | 12.17526 | 10724 ft | 286 kts | 179° |
| 2026-05-06 16:31 | 41.58614 | 12.17590 | 11028 ft | 298 kts | 179° |
| 2026-05-06 16:31 | 41.55746 | 12.17522 | 11564 ft | 322 kts | 185° |
| 2026-05-06 16:32 | 41.54227 | 12.17316 | 11814 ft | 333 kts | 188° |
| 2026-05-06 16:32 | 41.51909 | 12.16803 | 12377 ft | 342 kts | 190° |
| 2026-05-06 16:32 | 41.49582 | 12.16237 | 13117 ft | 346 kts | 191° |
| 2026-05-06 16:32 | 41.47181 | 12.15647 | 13866 ft | 350 kts | 191° |
| 2026-05-06 16:33 | 41.43991 | 12.14864 | 14806 ft | 354 kts | 191° |
| 2026-05-06 16:33 | 41.42384 | 12.14469 | 15278 ft | 357 kts | 192° |
| 2026-05-06 16:33 | 41.39934 | 12.13871 | 15960 ft | 359 kts | 192° |
| 2026-05-06 16:34 | 41.34172 | 12.12568 | 17499 ft | 367 kts | 186° |
| 2026-05-06 16:34 | 41.32455 | 12.12538 | 17915 ft | 371 kts | 180° |
| 2026-05-06 16:34 | 41.29903 | 12.13007 | 18535 ft | 375 kts | 170° |
| 2026-05-06 16:34 | 41.27352 | 12.13993 | 19127 ft | 381 kts | 166° |
| 2026-05-06 16:35 | 41.23975 | 12.15451 | 19877 ft | 385 kts | 166° |
| 2026-05-06 16:35 | 41.22277 | 12.16190 | 20247 ft | 387 kts | 166° |
| 2026-05-06 16:35 | 41.18858 | 12.17663 | 20969 ft | 391 kts | 166° |
| 2026-05-06 16:35 | 41.16239 | 12.18782 | 21491 ft | 394 kts | 167° |
| 2026-05-06 16:36 | 41.13627 | 12.19892 | 21982 ft | 397 kts | 167° |
| 2026-05-06 16:36 | 41.11858 | 12.20641 | 22312 ft | 400 kts | 167° |
| 2026-05-06 16:36 | 41.09212 | 12.21762 | 22769 ft | 403 kts | 167° |
| 2026-05-06 16:36 | 41.05635 | 12.23275 | 22970 ft | 404 kts | 167° |
| 2026-05-06 16:37 | 41.02952 | 12.24410 | 22968 ft | 404 kts | 167° |
| 2026-05-06 16:37 | 41.00264 | 12.25546 | 22976 ft | 405 kts | 167° |
| 2026-05-06 16:37 | 40.98460 | 12.26308 | 23058 ft | 409 kts | 167° |
| 2026-05-06 16:37 | 40.94841 | 12.27833 | 23765 ft | 409 kts | 167° |
| 2026-05-06 16:38 | 40.92094 | 12.28985 | 24318 ft | 409 kts | 168° |
| 2026-05-06 16:38 | 40.89325 | 12.29933 | 24793 ft | 409 kts | 173° |
| 2026-05-06 16:38 | 40.86519 | 12.30579 | 25271 ft | 408 kts | 178° |
| 2026-05-06 16:38 | 40.83676 | 12.30926 | 25735 ft | 408 kts | 181° |
| 2026-05-06 16:39 | 40.80796 | 12.31147 | 26195 ft | 410 kts | 181° |
| 2026-05-06 16:39 | 40.78887 | 12.31283 | 26508 ft | 411 kts | 181° |
| 2026-05-06 16:39 | 40.76026 | 12.31487 | 26854 ft | 415 kts | 181° |
| 2026-05-06 16:39 | 40.73109 | 12.31693 | 27125 ft | 420 kts | 181° |
| 2026-05-06 16:40 | 40.69170 | 12.31976 | 27595 ft | 425 kts | 181° |
| 2026-05-06 16:40 | 40.66186 | 12.32191 | 27989 ft | 426 kts | 181° |
| 2026-05-06 16:40 | 40.63207 | 12.32406 | 28379 ft | 427 kts | 181° |
| 2026-05-06 16:40 | 40.61247 | 12.32549 | 28656 ft | 427 kts | 181° |
| 2026-05-06 16:41 | 40.58292 | 12.32764 | 29137 ft | 426 kts | 181° |
| 2026-05-06 16:41 | 40.55312 | 12.32980 | 29645 ft | 424 kts | 181° |
| 2026-05-06 16:41 | 40.52359 | 12.33193 | 30173 ft | 422 kts | 181° |
| 2026-05-06 16:41 | 40.48318 | 12.33484 | 30849 ft | 420 kts | 181° |
| 2026-05-06 16:42 | 40.46316 | 12.33628 | 31181 ft | 419 kts | 181° |
| 2026-05-06 16:42 | 40.43375 | 12.33837 | 31620 ft | 418 kts | 181° |
| 2026-05-06 16:42 | 40.40408 | 12.34049 | 31994 ft | 419 kts | 181° |
| 2026-05-06 16:42 | 40.37492 | 12.34256 | 32333 ft | 420 kts | 181° |
| 2026-05-06 16:43 | 40.33587 | 12.34534 | 32756 ft | 421 kts | 181° |
| 2026-05-06 16:43 | 40.31626 | 12.34673 | 32922 ft | 423 kts | 181° |
| 2026-05-06 16:43 | 40.28679 | 12.34882 | 32973 ft | 424 kts | 181° |
| 2026-05-06 16:44 | 40.21777 | 12.35374 | 32978 ft | 424 kts | 181° |
| 2026-05-06 16:44 | 40.16872 | 12.35723 | 32976 ft | 424 kts | 181° |
| 2026-05-06 16:45 | 40.09996 | 12.36212 | 32980 ft | 425 kts | 181° |
| 2026-05-06 16:45 | 40.04079 | 12.36631 | 32980 ft | 425 kts | 181° |
| 2026-05-06 16:46 | 39.98186 | 12.37046 | 32975 ft | 426 kts | 181° |
| 2026-05-06 16:46 | 39.93252 | 12.37395 | 32979 ft | 425 kts | 181° |
| 2026-05-06 16:47 | 39.87312 | 12.37814 | 32984 ft | 425 kts | 181° |
| 2026-05-06 16:47 | 39.80448 | 12.38296 | 32982 ft | 427 kts | 181° |
| 2026-05-06 16:48 | 39.74517 | 12.38713 | 32983 ft | 426 kts | 181° |
| 2026-05-06 16:48 | 39.68594 | 12.39129 | 32981 ft | 426 kts | 181° |
| 2026-05-06 16:48 | 39.66632 | 12.39265 | 32854 ft | 428 kts | 181° |
| 2026-05-06 16:49 | 39.63654 | 12.39474 | 32565 ft | 426 kts | 181° |
| 2026-05-06 16:49 | 39.60683 | 12.39682 | 32135 ft | 424 kts | 181° |
| 2026-05-06 16:49 | 39.57748 | 12.39889 | 31494 ft | 422 kts | 181° |
| 2026-05-06 16:49 | 39.53895 | 12.40158 | 30545 ft | 421 kts | 181° |
| 2026-05-06 16:50 | 39.50969 | 12.40362 | 29807 ft | 421 kts | 181° |
| 2026-05-06 16:50 | 39.48052 | 12.40566 | 29024 ft | 422 kts | 181° |
| 2026-05-06 16:50 | 39.45118 | 12.40769 | 28211 ft | 423 kts | 181° |
| 2026-05-06 16:50 | 39.43177 | 12.40905 | 27728 ft | 422 kts | 181° |
| 2026-05-06 16:51 | 39.40248 | 12.41109 | 27230 ft | 418 kts | 181° |
| 2026-05-06 16:51 | 39.37386 | 12.41309 | 26721 ft | 415 kts | 181° |
| 2026-05-06 16:51 | 39.33572 | 12.41577 | 26031 ft | 410 kts | 181° |
| 2026-05-06 16:51 | 39.31680 | 12.41710 | 25668 ft | 407 kts | 181° |
| 2026-05-06 16:52 | 39.28863 | 12.41903 | 25140 ft | 403 kts | 181° |
| 2026-05-06 16:52 | 39.25179 | 12.42158 | 24431 ft | 398 kts | 181° |
| 2026-05-06 16:52 | 39.22430 | 12.42347 | 23914 ft | 394 kts | 181° |
| 2026-05-06 16:52 | 39.19716 | 12.42535 | 23391 ft | 391 kts | 181° |
| 2026-05-06 16:53 | 39.17887 | 12.42660 | 23034 ft | 388 kts | 181° |
| 2026-05-06 16:53 | 39.15236 | 12.42844 | 22548 ft | 385 kts | 181° |
| 2026-05-06 16:53 | 39.12560 | 12.43027 | 22025 ft | 383 kts | 181° |
| 2026-05-06 16:53 | 39.09922 | 12.43208 | 21506 ft | 381 kts | 182° |
| 2026-05-06 16:54 | 39.07289 | 12.43389 | 20983 ft | 379 kts | 181° |
| 2026-05-06 16:54 | 39.04670 | 12.43568 | 20479 ft | 376 kts | 182° |
| 2026-05-06 16:54 | 39.02075 | 12.43744 | 19970 ft | 373 kts | 182° |
| 2026-05-06 16:54 | 38.99468 | 12.43919 | 19466 ft | 371 kts | 182° |
| 2026-05-06 16:55 | 38.96915 | 12.44093 | 18965 ft | 369 kts | 182° |
| 2026-05-06 16:55 | 38.94363 | 12.44268 | 18464 ft | 367 kts | 182° |
| 2026-05-06 16:55 | 38.91816 | 12.44441 | 17953 ft | 366 kts | 182° |
| 2026-05-06 16:55 | 38.88411 | 12.44812 | 17299 ft | 367 kts | 176° |
| 2026-05-06 16:56 | 38.86723 | 12.45281 | 16986 ft | 369 kts | 171° |
| 2026-05-06 16:56 | 38.84309 | 12.46341 | 16511 ft | 372 kts | 163° |
| 2026-05-06 16:56 | 38.81967 | 12.47697 | 16046 ft | 371 kts | 161° |
| 2026-05-06 16:56 | 38.78857 | 12.49593 | 15433 ft | 367 kts | 160° |
| 2026-05-06 16:57 | 38.76561 | 12.50986 | 14972 ft | 364 kts | 160° |
| 2026-05-06 16:57 | 38.74298 | 12.52344 | 14459 ft | 362 kts | 160° |
| 2026-05-06 16:57 | 38.71976 | 12.53747 | 13831 ft | 363 kts | 160° |
| 2026-05-06 16:57 | 38.69675 | 12.55131 | 13161 ft | 363 kts | 160° |
| 2026-05-06 16:58 | 38.68145 | 12.56049 | 12695 ft | 363 kts | 160° |
| 2026-05-06 16:58 | 38.65840 | 12.57431 | 12068 ft | 358 kts | 160° |
| 2026-05-06 16:58 | 38.62871 | 12.59212 | 11263 ft | 342 kts | 159° |
| 2026-05-06 16:58 | 38.61451 | 12.60065 | 10916 ft | 327 kts | 159° |
| 2026-05-06 16:59 | 38.59473 | 12.61254 | 10696 ft | 297 kts | 159° |
| 2026-05-06 16:59 | 38.57118 | 12.62669 | 10480 ft | 265 kts | 160° |
| 2026-05-06 16:59 | 38.55483 | 12.63637 | 10336 ft | 259 kts | 160° |
| 2026-05-06 16:59 | 38.53847 | 12.64604 | 10194 ft | 255 kts | 160° |
| 2026-05-06 17:00 | 38.52234 | 12.65567 | 10071 ft | 254 kts | 160° |
| 2026-05-06 17:00 | 38.51139 | 12.66219 | 9994 ft | 254 kts | 160° |
| 2026-05-06 17:00 | 38.48992 | 12.67496 | 9556 ft | 254 kts | 160° |
| 2026-05-06 17:00 | 38.47399 | 12.68441 | 9211 ft | 253 kts | 159° |
| 2026-05-06 17:01 | 38.45784 | 12.69401 | 8868 ft | 252 kts | 159° |
| 2026-05-06 17:01 | 38.44701 | 12.70044 | 8650 ft | 250 kts | 158° |
| 2026-05-06 17:01 | 38.43111 | 12.70989 | 8322 ft | 249 kts | 158° |
| 2026-05-06 17:01 | 38.41026 | 12.72227 | 7893 ft | 247 kts | 158° |
| 2026-05-06 17:02 | 38.39993 | 12.72841 | 7682 ft | 246 kts | 157° |
| 2026-05-06 17:02 | 38.38425 | 12.73774 | 7367 ft | 245 kts | 157° |
| 2026-05-06 17:02 | 38.36890 | 12.74691 | 7052 ft | 245 kts | 157° |
| 2026-05-06 17:02 | 38.34820 | 12.75910 | 6641 ft | 244 kts | 156° |
| 2026-05-06 17:03 | 38.33278 | 12.76825 | 6326 ft | 243 kts | 156° |
| 2026-05-06 17:03 | 38.32276 | 12.77422 | 6124 ft | 242 kts | 156° |
| 2026-05-06 17:03 | 38.30752 | 12.78328 | 5805 ft | 242 kts | 155° |
| 2026-05-06 17:03 | 38.28764 | 12.79506 | 5634 ft | 229 kts | 155° |
| 2026-05-06 17:04 | 38.27349 | 12.80344 | 5554 ft | 217 kts | 155° |
| 2026-05-06 17:04 | 38.25999 | 12.81139 | 5475 ft | 209 kts | 154° |
| 2026-05-06 17:04 | 38.25120 | 12.81663 | 5421 ft | 208 kts | 154° |
| 2026-05-06 17:04 | 38.23807 | 12.82423 | 5228 ft | 210 kts | 156° |
| 2026-05-06 17:05 | 38.22443 | 12.83157 | 4946 ft | 211 kts | 156° |
| 2026-05-06 17:05 | 38.20629 | 12.84126 | 4573 ft | 213 kts | 156° |
| 2026-05-06 17:05 | 38.19264 | 12.84862 | 4292 ft | 213 kts | 156° |
| 2026-05-06 17:05 | 38.17884 | 12.85603 | 4027 ft | 214 kts | 155° |
| 2026-05-06 17:06 | 38.16516 | 12.86342 | 3759 ft | 214 kts | 154° |
| 2026-05-06 17:06 | 38.15169 | 12.87076 | 3644 ft | 210 kts | 154° |
| 2026-05-06 17:06 | 38.13846 | 12.87796 | 3615 ft | 199 kts | 154° |
| 2026-05-06 17:06 | 38.12620 | 12.88459 | 3526 ft | 190 kts | 154° |
| 2026-05-06 17:07 | 38.11809 | 12.88917 | 3437 ft | 188 kts | 148° |
| 2026-05-06 17:07 | 38.10899 | 12.90616 | 3130 ft | 184 kts | 88° |
| 2026-05-06 17:07 | 38.11328 | 12.92126 | 2893 ft | 185 kts | 58° |
| 2026-05-06 17:07 | 38.12001 | 12.93476 | 2694 ft | 174 kts | 59° |
| 2026-05-06 17:08 | 38.12582 | 12.94776 | 2415 ft | 164 kts | 62° |
| 2026-05-06 17:08 | 38.13083 | 12.96025 | 2181 ft | 154 kts | 64° |
| 2026-05-06 17:08 | 38.13384 | 12.96826 | 2034 ft | 148 kts | 65° |
| 2026-05-06 17:08 | 38.13800 | 12.97986 | 1864 ft | 143 kts | 65° |
| 2026-05-06 17:09 | 38.14306 | 12.99442 | 1593 ft | 128 kts | 65° |
| 2026-05-06 17:09 | 38.14540 | 13.00121 | 1486 ft | 127 kts | 65° |
| 2026-05-06 17:09 | 38.15007 | 13.01484 | 1272 ft | 126 kts | 65° |
| 2026-05-06 17:09 | 38.15355 | 13.02510 | 1109 ft | 125 kts | 65° |
| 2026-05-06 17:10 | 38.15697 | 13.03519 | 941 ft | 124 kts | 65° |
| 2026-05-06 17:10 | 38.16042 | 13.04543 | 773 ft | 124 kts | 65° |
| 2026-05-06 17:10 | 38.16367 | 13.05511 | 609 ft | 123 kts | 65° |
| 2026-05-06 17:10 | 38.16703 | 13.06504 | 439 ft | 122 kts | 65° |
| 2026-05-06 17:11 | 38.17052 | 13.07491 | 260 ft | 122 kts | 65° |
| 2026-05-06 17:11 | 38.17270 | 13.08149 | 136 ft | 122 kts | 66° |
| 2026-05-06 17:11 | 38.17686 | 13.09406 | 58 ft | 92 kts | 66° |
| 2026-05-06 17:11 | 38.17875 | 13.09957 | 75 ft | 48 kts | 69° |
| 2026-05-06 17:12 | 38.17957 | 13.10206 | 81 ft | 36 kts | 68° |
| 2026-05-06 17:12 | 38.18029 | 13.10148 | 77 ft | 15 kts | 268° |
| 2026-05-06 17:12 | 38.18034 | 13.10061 | 72 ft | 8 kts | 280° |
| 2026-05-06 17:12 | 38.18050 | 13.09958 | 66 ft | 14 kts | 280° |
| 2026-05-06 17:13 | 38.18105 | 13.09867 | 62 ft | 16 kts | 30° |
| 2026-05-06 17:13 | 38.18163 | 13.09983 | 64 ft | 15 kts | 67° |
| 2026-05-06 17:13 | 38.18204 | 13.10102 | 67 ft | 14 kts | 68° |
| 2026-05-06 17:13 | 38.18240 | 13.10211 | 69 ft | 13 kts | 66° |
| 2026-05-06 17:14 | 38.18264 | 13.10283 | 69 ft | 13 kts | 66° |
| 2026-05-06 17:14 | 38.18316 | 13.10431 | 71 ft | 13 kts | 65° |
| 2026-05-06 17:14 | 38.18355 | 13.10485 | 72 ft | 12 kts | 28° |
| 2026-05-06 17:14 | 38.18406 | 13.10511 | 72 ft | 6 kts | 23° |
| 2026-05-06 17:15 | 38.18473 | 13.10508 | 71 ft | 8 kts | 337° |
| 2026-05-06 17:15 | 38.18497 | 13.10496 | 69 ft | 2 kts | 336° |
| 2026-05-06 17:15 | 38.18522 | 13.10482 | 68 ft | 0 kts | 337° |